sensor_id;sensor_type;location;lat;lon;timestamp;temperature;humidity
39045;DHT22;52192;52.002;5.956;2023-03-31T00:01:34;13.60;76.30
39045;DHT22;52192;52.002;5.956;2023-03-31T00:04:01;13.60;76.20
39045;DHT22;52192;52.002;5.956;2023-03-31T00:06:36;13.60;76.40
39045;DHT22;52192;52.002;5.956;2023-03-31T00:09:08;13.50;76.30
39045;DHT22;52192;52.002;5.956;2023-03-31T00:11:33;13.50;76.40
39045;DHT22;52192;52.002;5.956;2023-03-31T00:13:59;13.60;76.30
39045;DHT22;52192;52.002;5.956;2023-03-31T00:16:26;13.60;76.20
39045;DHT22;52192;52.002;5.956;2023-03-31T00:18:52;13.60;76.20
39045;DHT22;52192;52.002;5.956;2023-03-31T00:21:20;13.60;76.20
39045;DHT22;52192;52.002;5.956;2023-03-31T00:23:53;13.60;76.20
39045;DHT22;52192;52.002;5.956;2023-03-31T00:26:20;13.60;76.10
39045;DHT22;52192;52.002;5.956;2023-03-31T00:28:50;13.60;76.10
39045;DHT22;52192;52.002;5.956;2023-03-31T00:31:16;13.60;76.20
39045;DHT22;52192;52.002;5.956;2023-03-31T00:33:42;13.60;76.20
39045;DHT22;52192;52.002;5.956;2023-03-31T00:36:07;13.60;76.30
39045;DHT22;52192;52.002;5.956;2023-03-31T00:38:34;13.60;76.30
39045;DHT22;52192;52.002;5.956;2023-03-31T00:41:00;13.60;76.30
39045;DHT22;52192;52.002;5.956;2023-03-31T00:43:32;13.50;76.30
39045;DHT22;52192;52.002;5.956;2023-03-31T00:46:17;13.60;76.40
39045;DHT22;52192;52.002;5.956;2023-03-31T00:48:50;13.60;76.40
39045;DHT22;52192;52.002;5.956;2023-03-31T00:51:19;13.60;76.40
39045;DHT22;52192;52.002;5.956;2023-03-31T00:53:51;13.60;76.30
39045;DHT22;52192;52.002;5.956;2023-03-31T00:56:26;13.60;76.20
39045;DHT22;52192;52.002;5.956;2023-03-31T00:58:54;13.60;76.30
39045;DHT22;52192;52.002;5.956;2023-03-31T01:01:22;13.60;76.30
39045;DHT22;52192;52.002;5.956;2023-03-31T01:03:51;13.60;76.50
39045;DHT22;52192;52.002;5.956;2023-03-31T01:06:18;13.60;76.60
39045;DHT22;52192;52.002;5.956;2023-03-31T01:08:49;13.60;76.90
39045;DHT22;52192;52.002;5.956;2023-03-31T01:11:19;13.60;77.40
39045;DHT22;52192;52.002;5.956;2023-03-31T01:13:47;13.50;77.70
39045;DHT22;52192;52.002;5.956;2023-03-31T01:16:16;13.40;77.90
39045;DHT22;52192;52.002;5.956;2023-03-31T01:18:43;13.40;78.00
39045;DHT22;52192;52.002;5.956;2023-03-31T01:40:09;13.20;79.60
39045;DHT22;52192;52.002;5.956;2023-03-31T01:42:47;13.20;79.50
39045;DHT22;52192;52.002;5.956;2023-03-31T01:47:58;13.30;79.40
39045;DHT22;52192;52.002;5.956;2023-03-31T01:50:35;13.30;79.40
39045;DHT22;52192;52.002;5.956;2023-03-31T01:58:41;13.40;79.60
39045;DHT22;52192;52.002;5.956;2023-03-31T02:03:44;13.30;79.60
39045;DHT22;52192;52.002;5.956;2023-03-31T02:06:16;13.30;79.60
39045;DHT22;52192;52.002;5.956;2023-03-31T02:08:47;13.30;79.50
39045;DHT22;52192;52.002;5.956;2023-03-31T02:11:14;13.30;79.60
39045;DHT22;52192;52.002;5.956;2023-03-31T02:13:42;13.30;79.80
39045;DHT22;52192;52.002;5.956;2023-03-31T02:16:13;13.20;80.20
39045;DHT22;52192;52.002;5.956;2023-03-31T02:18:44;13.20;80.40
39045;DHT22;52192;52.002;5.956;2023-03-31T02:21:13;13.20;80.60
39045;DHT22;52192;52.002;5.956;2023-03-31T02:23:39;13.20;80.60
39045;DHT22;52192;52.002;5.956;2023-03-31T02:26:30;13.20;80.60
39045;DHT22;52192;52.002;5.956;2023-03-31T02:29:00;13.20;80.40
39045;DHT22;52192;52.002;5.956;2023-03-31T02:31:38;13.20;80.50
39045;DHT22;52192;52.002;5.956;2023-03-31T02:34:05;13.20;80.50
39045;DHT22;52192;52.002;5.956;2023-03-31T02:36:32;13.20;80.60
39045;DHT22;52192;52.002;5.956;2023-03-31T02:39:02;13.20;80.40
39045;DHT22;52192;52.002;5.956;2023-03-31T02:41:30;13.30;80.50
39045;DHT22;52192;52.002;5.956;2023-03-31T02:43:56;13.20;80.50
39045;DHT22;52192;52.002;5.956;2023-03-31T02:46:21;13.20;80.60
39045;DHT22;52192;52.002;5.956;2023-03-31T02:48:49;13.20;81.00
39045;DHT22;52192;52.002;5.956;2023-03-31T02:54:31;13.10;81.50
39045;DHT22;52192;52.002;5.956;2023-03-31T03:05:53;13.10;81.60
39045;DHT22;52192;52.002;5.956;2023-03-31T03:11:04;13.10;81.50
39045;DHT22;52192;52.002;5.956;2023-03-31T03:14:19;13.10;81.50
39045;DHT22;52192;52.002;5.956;2023-03-31T03:17:09;13.10;81.70
39045;DHT22;52192;52.002;5.956;2023-03-31T03:19:36;13.00;81.90
39045;DHT22;52192;52.002;5.956;2023-03-31T03:22:02;12.90;82.00
39045;DHT22;52192;52.002;5.956;2023-03-31T03:24:27;12.90;82.00
39045;DHT22;52192;52.002;5.956;2023-03-31T03:26:55;12.90;81.90
39045;DHT22;52192;52.002;5.956;2023-03-31T03:29:21;12.90;82.00
39045;DHT22;52192;52.002;5.956;2023-03-31T03:31:47;12.90;81.90
39045;DHT22;52192;52.002;5.956;2023-03-31T03:34:12;12.90;81.80
39045;DHT22;52192;52.002;5.956;2023-03-31T03:36:38;12.90;81.90
39045;DHT22;52192;52.002;5.956;2023-03-31T03:39:06;12.90;81.90
39045;DHT22;52192;52.002;5.956;2023-03-31T03:41:33;12.90;81.80
39045;DHT22;52192;52.002;5.956;2023-03-31T03:43:59;12.90;81.90
39045;DHT22;52192;52.002;5.956;2023-03-31T03:46:26;12.90;82.00
39045;DHT22;52192;52.002;5.956;2023-03-31T03:48:52;12.90;82.00
39045;DHT22;52192;52.002;5.956;2023-03-31T03:51:17;12.90;82.10
39045;DHT22;52192;52.002;5.956;2023-03-31T03:53:43;12.90;82.10
39045;DHT22;52192;52.002;5.956;2023-03-31T03:56:09;12.90;82.30
39045;DHT22;52192;52.002;5.956;2023-03-31T03:58:34;12.90;82.30
39045;DHT22;52192;52.002;5.956;2023-03-31T04:01:00;12.90;82.40
39045;DHT22;52192;52.002;5.956;2023-03-31T04:03:26;12.90;82.60
39045;DHT22;52192;52.002;5.956;2023-03-31T04:05:52;12.90;82.50
39045;DHT22;52192;52.002;5.956;2023-03-31T04:08:18;12.90;82.50
39045;DHT22;52192;52.002;5.956;2023-03-31T04:10:44;12.90;82.50
39045;DHT22;52192;52.002;5.956;2023-03-31T04:13:11;12.90;82.50
39045;DHT22;52192;52.002;5.956;2023-03-31T04:15:36;12.90;82.50
39045;DHT22;52192;52.002;5.956;2023-03-31T04:18:02;12.90;82.30
39045;DHT22;52192;52.002;5.956;2023-03-31T04:20:28;13.00;82.30
39045;DHT22;52192;52.002;5.956;2023-03-31T04:22:55;13.00;82.20
39045;DHT22;52192;52.002;5.956;2023-03-31T04:25:20;13.00;82.40
39045;DHT22;52192;52.002;5.956;2023-03-31T04:27:48;13.00;82.30
39045;DHT22;52192;52.002;5.956;2023-03-31T04:30:22;13.10;82.20
39045;DHT22;52192;52.002;5.956;2023-03-31T04:33:01;13.10;82.20
39045;DHT22;52192;52.002;5.956;2023-03-31T04:35:31;13.10;82.30
39045;DHT22;52192;52.002;5.956;2023-03-31T04:38:23;13.00;82.30
39045;DHT22;52192;52.002;5.956;2023-03-31T04:40:52;12.90;82.50
39045;DHT22;52192;52.002;5.956;2023-03-31T04:43:19;12.90;82.60
39045;DHT22;52192;52.002;5.956;2023-03-31T04:45:45;12.90;82.40
39045;DHT22;52192;52.002;5.956;2023-03-31T04:48:12;13.00;82.40
39045;DHT22;52192;52.002;5.956;2023-03-31T04:50:38;13.00;82.30
39045;DHT22;52192;52.002;5.956;2023-03-31T04:53:04;13.00;82.40
39045;DHT22;52192;52.002;5.956;2023-03-31T04:55:30;13.00;82.40
39045;DHT22;52192;52.002;5.956;2023-03-31T04:57:56;13.00;82.40
39045;DHT22;52192;52.002;5.956;2023-03-31T05:00:22;12.90;82.50
39045;DHT22;52192;52.002;5.956;2023-03-31T05:02:48;12.90;82.50
39045;DHT22;52192;52.002;5.956;2023-03-31T05:05:14;13.00;82.50
39045;DHT22;52192;52.002;5.956;2023-03-31T05:07:40;13.00;82.50
39045;DHT22;52192;52.002;5.956;2023-03-31T05:10:06;13.00;82.50
39045;DHT22;52192;52.002;5.956;2023-03-31T05:12:39;12.90;82.50
39045;DHT22;52192;52.002;5.956;2023-03-31T05:15:06;13.00;82.50
39045;DHT22;52192;52.002;5.956;2023-03-31T05:17:33;13.00;82.60
39045;DHT22;52192;52.002;5.956;2023-03-31T05:20:00;12.90;82.60
39045;DHT22;52192;52.002;5.956;2023-03-31T05:22:37;12.90;82.80
39045;DHT22;52192;52.002;5.956;2023-03-31T05:25:04;12.80;82.80
39045;DHT22;52192;52.002;5.956;2023-03-31T05:27:31;12.80;83.20
39045;DHT22;52192;52.002;5.956;2023-03-31T05:29:57;12.70;83.40
39045;DHT22;52192;52.002;5.956;2023-03-31T05:32:23;12.70;83.60
39045;DHT22;52192;52.002;5.956;2023-03-31T05:34:49;12.70;83.70
39045;DHT22;52192;52.002;5.956;2023-03-31T05:37:18;12.70;83.70
39045;DHT22;52192;52.002;5.956;2023-03-31T05:39:44;12.70;83.60
39045;DHT22;52192;52.002;5.956;2023-03-31T05:42:10;12.70;83.60
39045;DHT22;52192;52.002;5.956;2023-03-31T05:44:36;12.70;83.50
39045;DHT22;52192;52.002;5.956;2023-03-31T05:47:01;12.80;83.40
39045;DHT22;52192;52.002;5.956;2023-03-31T05:49:27;12.80;83.40
39045;DHT22;52192;52.002;5.956;2023-03-31T05:51:53;12.80;83.30
39045;DHT22;52192;52.002;5.956;2023-03-31T05:54:18;12.80;83.30
39045;DHT22;52192;52.002;5.956;2023-03-31T05:56:44;12.70;83.30
39045;DHT22;52192;52.002;5.956;2023-03-31T05:59:10;12.80;83.50
39045;DHT22;52192;52.002;5.956;2023-03-31T06:01:36;12.70;83.50
39045;DHT22;52192;52.002;5.956;2023-03-31T06:04:01;12.80;83.50
39045;DHT22;52192;52.002;5.956;2023-03-31T06:06:27;12.80;83.60
39045;DHT22;52192;52.002;5.956;2023-03-31T06:08:53;12.80;83.60
39045;DHT22;52192;52.002;5.956;2023-03-31T06:11:20;12.80;83.60
39045;DHT22;52192;52.002;5.956;2023-03-31T06:13:46;12.80;83.60
39045;DHT22;52192;52.002;5.956;2023-03-31T06:16:14;12.80;84.10
39045;DHT22;52192;52.002;5.956;2023-03-31T06:18:41;12.80;83.60
39045;DHT22;52192;52.002;5.956;2023-03-31T06:21:11;12.90;83.60
39045;DHT22;52192;52.002;5.956;2023-03-31T06:23:37;12.90;83.60
39045;DHT22;52192;52.002;5.956;2023-03-31T06:26:05;12.80;83.50
39045;DHT22;52192;52.002;5.956;2023-03-31T06:28:33;12.80;83.60
39045;DHT22;52192;52.002;5.956;2023-03-31T06:31:04;12.80;83.70
39045;DHT22;52192;52.002;5.956;2023-03-31T06:33:31;12.80;83.70
39045;DHT22;52192;52.002;5.956;2023-03-31T06:35:57;12.80;84.00
39045;DHT22;52192;52.002;5.956;2023-03-31T06:38:26;12.70;83.90
39045;DHT22;52192;52.002;5.956;2023-03-31T06:40:53;12.70;83.90
39045;DHT22;52192;52.002;5.956;2023-03-31T06:43:18;12.80;83.80
39045;DHT22;52192;52.002;5.956;2023-03-31T06:45:45;12.80;83.70
39045;DHT22;52192;52.002;5.956;2023-03-31T06:48:11;12.90;83.40
39045;DHT22;52192;52.002;5.956;2023-03-31T06:50:38;12.90;83.30
39045;DHT22;52192;52.002;5.956;2023-03-31T06:53:04;12.90;83.30
39045;DHT22;52192;52.002;5.956;2023-03-31T06:55:30;12.90;83.30
39045;DHT22;52192;52.002;5.956;2023-03-31T06:57:56;12.90;83.10
39045;DHT22;52192;52.002;5.956;2023-03-31T07:00:22;12.90;83.20
39045;DHT22;52192;52.002;5.956;2023-03-31T07:02:50;12.90;83.20
39045;DHT22;52192;52.002;5.956;2023-03-31T07:05:16;13.00;83.10
39045;DHT22;52192;52.002;5.956;2023-03-31T07:07:43;13.10;82.90
39045;DHT22;52192;52.002;5.956;2023-03-31T07:10:08;13.10;82.80
39045;DHT22;52192;52.002;5.956;2023-03-31T07:12:34;13.10;82.90
39045;DHT22;52192;52.002;5.956;2023-03-31T07:15:00;13.10;82.90
39045;DHT22;52192;52.002;5.956;2023-03-31T07:17:25;13.10;82.90
39045;DHT22;52192;52.002;5.956;2023-03-31T07:19:51;13.10;82.90
39045;DHT22;52192;52.002;5.956;2023-03-31T07:22:17;13.10;83.00
39045;DHT22;52192;52.002;5.956;2023-03-31T07:24:42;13.00;82.90
39045;DHT22;52192;52.002;5.956;2023-03-31T07:27:08;13.00;82.90
39045;DHT22;52192;52.002;5.956;2023-03-31T07:29:34;13.00;83.00
39045;DHT22;52192;52.002;5.956;2023-03-31T07:32:00;12.90;83.10
39045;DHT22;52192;52.002;5.956;2023-03-31T07:34:26;12.90;83.10
39045;DHT22;52192;52.002;5.956;2023-03-31T07:36:54;12.90;83.10
39045;DHT22;52192;52.002;5.956;2023-03-31T07:39:20;12.90;83.20
39045;DHT22;52192;52.002;5.956;2023-03-31T07:41:46;12.90;83.20
39045;DHT22;52192;52.002;5.956;2023-03-31T07:44:12;12.90;83.10
39045;DHT22;52192;52.002;5.956;2023-03-31T07:46:38;13.00;83.10
39045;DHT22;52192;52.002;5.956;2023-03-31T07:49:04;13.00;83.10
39045;DHT22;52192;52.002;5.956;2023-03-31T07:51:32;13.00;83.20
39045;DHT22;52192;52.002;5.956;2023-03-31T07:53:58;13.00;83.00
39045;DHT22;52192;52.002;5.956;2023-03-31T07:56:24;13.00;83.10
39045;DHT22;52192;52.002;5.956;2023-03-31T07:58:50;13.10;83.00
39045;DHT22;52192;52.002;5.956;2023-03-31T08:01:18;13.10;82.90
39045;DHT22;52192;52.002;5.956;2023-03-31T08:03:45;13.10;82.80
39045;DHT22;52192;52.002;5.956;2023-03-31T08:06:16;13.10;82.90
39045;DHT22;52192;52.002;5.956;2023-03-31T08:08:42;13.10;83.00
39045;DHT22;52192;52.002;5.956;2023-03-31T08:11:08;13.10;82.90
39045;DHT22;52192;52.002;5.956;2023-03-31T08:13:35;13.20;82.90
39045;DHT22;52192;52.002;5.956;2023-03-31T08:16:01;13.20;82.80
39045;DHT22;52192;52.002;5.956;2023-03-31T08:18:28;13.20;82.80
39045;DHT22;52192;52.002;5.956;2023-03-31T08:20:53;13.20;82.80
39045;DHT22;52192;52.002;5.956;2023-03-31T08:23:19;13.30;82.70
39045;DHT22;52192;52.002;5.956;2023-03-31T08:25:45;13.30;82.60
39045;DHT22;52192;52.002;5.956;2023-03-31T08:28:11;13.30;82.50
39045;DHT22;52192;52.002;5.956;2023-03-31T08:30:39;13.30;82.50
39045;DHT22;52192;52.002;5.956;2023-03-31T08:33:05;13.30;82.50
39045;DHT22;52192;52.002;5.956;2023-03-31T08:35:33;13.30;82.50
39045;DHT22;52192;52.002;5.956;2023-03-31T08:37:59;13.40;82.60
39045;DHT22;52192;52.002;5.956;2023-03-31T08:40:27;13.40;82.60
39045;DHT22;52192;52.002;5.956;2023-03-31T08:42:56;13.40;82.70
39045;DHT22;52192;52.002;5.956;2023-03-31T08:45:40;13.30;82.80
39045;DHT22;52192;52.002;5.956;2023-03-31T08:48:35;13.40;82.80
39045;DHT22;52192;52.002;5.956;2023-03-31T08:51:12;13.40;82.90
39045;DHT22;52192;52.002;5.956;2023-03-31T08:53:44;13.50;83.10
39045;DHT22;52192;52.002;5.956;2023-03-31T08:56:16;13.60;83.00
39045;DHT22;52192;52.002;5.956;2023-03-31T08:58:44;13.60;83.10
39045;DHT22;52192;52.002;5.956;2023-03-31T09:01:44;13.60;83.20
39045;DHT22;52192;52.002;5.956;2023-03-31T09:09:21;13.70;83.20
39045;DHT22;52192;52.002;5.956;2023-03-31T09:11:52;13.80;83.10
39045;DHT22;52192;52.002;5.956;2023-03-31T09:14:32;13.80;83.00
39045;DHT22;52192;52.002;5.956;2023-03-31T09:17:20;13.90;83.00
39045;DHT22;52192;52.002;5.956;2023-03-31T09:19:59;13.90;82.90
39045;DHT22;52192;52.002;5.956;2023-03-31T09:22:32;13.90;82.90
39045;DHT22;52192;52.002;5.956;2023-03-31T09:25:06;14.00;82.90
39045;DHT22;52192;52.002;5.956;2023-03-31T09:27:34;14.00;82.90
39045;DHT22;52192;52.002;5.956;2023-03-31T09:30:29;14.00;83.00
39045;DHT22;52192;52.002;5.956;2023-03-31T09:35:27;14.00;83.10
39045;DHT22;52192;52.002;5.956;2023-03-31T09:37:58;14.00;83.20
39045;DHT22;52192;52.002;5.956;2023-03-31T09:40:26;14.00;83.10
39045;DHT22;52192;52.002;5.956;2023-03-31T09:43:18;14.10;83.30
39045;DHT22;52192;52.002;5.956;2023-03-31T09:45:46;14.00;83.00
39045;DHT22;52192;52.002;5.956;2023-03-31T09:48:18;14.00;83.10
39045;DHT22;52192;52.002;5.956;2023-03-31T09:51:19;14.10;83.20
39045;DHT22;52192;52.002;5.956;2023-03-31T09:53:51;14.10;83.30
39045;DHT22;52192;52.002;5.956;2023-03-31T09:59:16;14.20;82.80
39045;DHT22;52192;52.002;5.956;2023-03-31T10:01:44;14.30;82.90
39045;DHT22;52192;52.002;5.956;2023-03-31T10:04:26;14.30;82.60
39045;DHT22;52192;52.002;5.956;2023-03-31T10:06:53;14.30;82.60
39045;DHT22;52192;52.002;5.956;2023-03-31T10:09:20;14.30;82.60
39045;DHT22;52192;52.002;5.956;2023-03-31T10:11:57;14.30;82.50
39045;DHT22;52192;52.002;5.956;2023-03-31T10:14:26;14.30;82.40
39045;DHT22;52192;52.002;5.956;2023-03-31T10:16:57;14.30;82.30
39045;DHT22;52192;52.002;5.956;2023-03-31T10:19:24;14.30;82.10
39045;DHT22;52192;52.002;5.956;2023-03-31T10:21:57;14.20;82.10
39045;DHT22;52192;52.002;5.956;2023-03-31T10:24:24;14.20;82.10
39045;DHT22;52192;52.002;5.956;2023-03-31T10:26:53;14.10;82.00
39045;DHT22;52192;52.002;5.956;2023-03-31T10:29:31;14.10;81.50
39045;DHT22;52192;52.002;5.956;2023-03-31T10:32:22;14.10;81.30
39045;DHT22;52192;52.002;5.956;2023-03-31T10:34:48;14.10;81.10
39045;DHT22;52192;52.002;5.956;2023-03-31T10:37:22;14.00;80.80
39045;DHT22;52192;52.002;5.956;2023-03-31T10:45:35;14.10;80.00
39045;DHT22;52192;52.002;5.956;2023-03-31T10:48:01;14.20;79.20
39045;DHT22;52192;52.002;5.956;2023-03-31T10:50:33;14.40;79.20
39045;DHT22;52192;52.002;5.956;2023-03-31T10:53:13;14.50;78.80
39045;DHT22;52192;52.002;5.956;2023-03-31T10:55:49;14.70;78.50
39045;DHT22;52192;52.002;5.956;2023-03-31T11:06:44;15.00;76.20
39045;DHT22;52192;52.002;5.956;2023-03-31T11:09:32;15.10;76.20
39045;DHT22;52192;52.002;5.956;2023-03-31T11:14:56;15.20;75.40
39045;DHT22;52192;52.002;5.956;2023-03-31T11:17:48;15.20;75.10
39045;DHT22;52192;52.002;5.956;2023-03-31T11:20:37;15.20;74.50
39045;DHT22;52192;52.002;5.956;2023-03-31T11:23:20;15.10;74.10
39045;DHT22;52192;52.002;5.956;2023-03-31T11:29:04;15.00;74.20
39045;DHT22;52192;52.002;5.956;2023-03-31T11:34:28;14.90;73.80
39045;DHT22;52192;52.002;5.956;2023-03-31T11:42:25;14.90;73.60
39045;DHT22;52192;52.002;5.956;2023-03-31T11:44:57;14.90;74.10
39045;DHT22;52192;52.002;5.956;2023-03-31T11:47:30;15.10;74.30
39045;DHT22;52192;52.002;5.956;2023-03-31T11:50:02;15.20;74.10
39045;DHT22;52192;52.002;5.956;2023-03-31T11:52:39;15.20;74.00
39045;DHT22;52192;52.002;5.956;2023-03-31T12:00:37;15.60;72.80
39045;DHT22;52192;52.002;5.956;2023-03-31T12:03:22;15.60;72.10
39045;DHT22;52192;52.002;5.956;2023-03-31T12:05:58;15.60;72.40
39045;DHT22;52192;52.002;5.956;2023-03-31T12:08:38;15.50;72.60
39045;DHT22;52192;52.002;5.956;2023-03-31T12:13:54;15.40;72.10
39045;DHT22;52192;52.002;5.956;2023-03-31T12:25:18;15.20;71.70
39045;DHT22;52192;52.002;5.956;2023-03-31T12:27:47;15.30;71.80
39045;DHT22;52192;52.002;5.956;2023-03-31T12:32:51;15.30;71.60
39045;DHT22;52192;52.002;5.956;2023-03-31T12:44:12;15.00;72.30
39045;DHT22;52192;52.002;5.956;2023-03-31T12:52:06;14.90;72.80
39045;DHT22;52192;52.002;5.956;2023-03-31T12:57:25;14.90;73.00
39045;DHT22;52192;52.002;5.956;2023-03-31T13:02:39;15.00;73.00
39045;DHT22;52192;52.002;5.956;2023-03-31T13:07:57;14.90;72.80
39045;DHT22;52192;52.002;5.956;2023-03-31T13:10:26;14.80;72.90
39045;DHT22;52192;52.002;5.956;2023-03-31T13:15:22;14.80;73.40
39045;DHT22;52192;52.002;5.956;2023-03-31T13:18:17;14.80;73.00
39045;DHT22;52192;52.002;5.956;2023-03-31T13:20:44;14.80;72.60
39045;DHT22;52192;52.002;5.956;2023-03-31T13:25:47;14.90;73.00
39045;DHT22;52192;52.002;5.956;2023-03-31T13:28:23;15.00;72.60
39045;DHT22;52192;52.002;5.956;2023-03-31T13:31:01;15.00;72.20
39045;DHT22;52192;52.002;5.956;2023-03-31T13:41:20;14.80;72.60
39045;DHT22;52192;52.002;5.956;2023-03-31T13:44:33;14.80;73.00
39045;DHT22;52192;52.002;5.956;2023-03-31T13:50:37;14.70;73.90
39045;DHT22;52192;52.002;5.956;2023-03-31T13:59:04;14.60;75.20
39045;DHT22;52192;52.002;5.956;2023-03-31T14:02:04;14.50;75.60
39045;DHT22;52192;52.002;5.956;2023-03-31T14:05:17;14.50;76.00
39045;DHT22;52192;52.002;5.956;2023-03-31T14:07:58;14.50;76.20
39045;DHT22;52192;52.002;5.956;2023-03-31T14:10:32;14.50;76.80
39045;DHT22;52192;52.002;5.956;2023-03-31T14:13:17;14.30;76.70
39045;DHT22;52192;52.002;5.956;2023-03-31T14:15:57;14.30;77.20
39045;DHT22;52192;52.002;5.956;2023-03-31T14:18:26;14.20;77.50
39045;DHT22;52192;52.002;5.956;2023-03-31T14:21:23;14.10;77.60
39045;DHT22;52192;52.002;5.956;2023-03-31T14:24:24;14.20;77.80
39045;DHT22;52192;52.002;5.956;2023-03-31T14:30:15;14.30;77.90
39045;DHT22;52192;52.002;5.956;2023-03-31T14:32:49;14.30;78.50
39045;DHT22;52192;52.002;5.956;2023-03-31T14:35:50;14.40;78.00
39045;DHT22;52192;52.002;5.956;2023-03-31T14:38:19;14.30;77.80
39045;DHT22;52192;52.002;5.956;2023-03-31T14:40:51;14.20;77.90
39045;DHT22;52192;52.002;5.956;2023-03-31T14:43:34;14.20;78.00
39045;DHT22;52192;52.002;5.956;2023-03-31T14:46:04;14.20;78.10
39045;DHT22;52192;52.002;5.956;2023-03-31T14:48:40;14.10;78.10
39045;DHT22;52192;52.002;5.956;2023-03-31T14:51:13;14.10;78.30
39045;DHT22;52192;52.002;5.956;2023-03-31T14:53:39;14.10;78.40
39045;DHT22;52192;52.002;5.956;2023-03-31T14:56:08;14.10;78.40
39045;DHT22;52192;52.002;5.956;2023-03-31T14:58:39;14.00;78.40
39045;DHT22;52192;52.002;5.956;2023-03-31T15:01:07;14.00;78.40
39045;DHT22;52192;52.002;5.956;2023-03-31T15:03:35;14.10;78.40
39045;DHT22;52192;52.002;5.956;2023-03-31T15:06:04;14.10;78.70
39045;DHT22;52192;52.002;5.956;2023-03-31T15:08:31;14.10;78.70
39045;DHT22;52192;52.002;5.956;2023-03-31T15:11:11;14.00;78.70
39045;DHT22;52192;52.002;5.956;2023-03-31T15:13:44;13.90;78.80
39045;DHT22;52192;52.002;5.956;2023-03-31T15:18:45;13.90;79.10
39045;DHT22;52192;52.002;5.956;2023-03-31T15:21:22;13.80;79.30
39045;DHT22;52192;52.002;5.956;2023-03-31T15:23:51;13.80;79.50
39045;DHT22;52192;52.002;5.956;2023-03-31T15:26:20;13.80;79.50
39045;DHT22;52192;52.002;5.956;2023-03-31T15:28:55;13.80;79.60
39045;DHT22;52192;52.002;5.956;2023-03-31T15:31:22;13.90;79.40
39045;DHT22;52192;52.002;5.956;2023-03-31T15:33:51;13.90;79.30
39045;DHT22;52192;52.002;5.956;2023-03-31T15:36:19;14.00;79.30
39045;DHT22;52192;52.002;5.956;2023-03-31T15:38:45;14.00;79.20
39045;DHT22;52192;52.002;5.956;2023-03-31T15:41:13;14.00;79.10
39045;DHT22;52192;52.002;5.956;2023-03-31T15:43:43;13.90;79.10
39045;DHT22;52192;52.002;5.956;2023-03-31T15:46:24;13.90;79.00
39045;DHT22;52192;52.002;5.956;2023-03-31T15:48:59;13.90;79.10
39045;DHT22;52192;52.002;5.956;2023-03-31T15:51:34;13.80;79.30
39045;DHT22;52192;52.002;5.956;2023-03-31T15:54:01;13.80;79.20
39045;DHT22;52192;52.002;5.956;2023-03-31T15:56:44;13.80;79.30
39045;DHT22;52192;52.002;5.956;2023-03-31T15:59:24;13.70;79.40
39045;DHT22;52192;52.002;5.956;2023-03-31T16:01:50;13.70;79.60
39045;DHT22;52192;52.002;5.956;2023-03-31T16:04:16;13.70;79.80
39045;DHT22;52192;52.002;5.956;2023-03-31T16:06:56;13.70;79.90
39045;DHT22;52192;52.002;5.956;2023-03-31T16:12:41;13.70;80.10
39045;DHT22;52192;52.002;5.956;2023-03-31T16:17:49;13.60;80.10
39045;DHT22;52192;52.002;5.956;2023-03-31T16:20:21;13.60;80.10
39045;DHT22;52192;52.002;5.956;2023-03-31T16:22:54;13.60;80.00
39045;DHT22;52192;52.002;5.956;2023-03-31T16:25:24;13.60;79.80
39045;DHT22;52192;52.002;5.956;2023-03-31T16:27:53;13.60;79.90
39045;DHT22;52192;52.002;5.956;2023-03-31T16:30:31;13.60;79.90
39045;DHT22;52192;52.002;5.956;2023-03-31T16:33:05;13.50;79.90
39045;DHT22;52192;52.002;5.956;2023-03-31T16:35:45;13.50;80.00
39045;DHT22;52192;52.002;5.956;2023-03-31T16:38:16;13.50;79.90
39045;DHT22;52192;52.002;5.956;2023-03-31T16:40:44;13.50;79.80
39045;DHT22;52192;52.002;5.956;2023-03-31T16:43:22;13.50;79.90
39045;DHT22;52192;52.002;5.956;2023-03-31T16:45:53;13.40;79.60
39045;DHT22;52192;52.002;5.956;2023-03-31T16:48:21;13.40;79.70
39045;DHT22;52192;52.002;5.956;2023-03-31T16:50:49;13.30;79.60
39045;DHT22;52192;52.002;5.956;2023-03-31T16:53:18;13.30;79.80
39045;DHT22;52192;52.002;5.956;2023-03-31T16:55:44;13.20;79.90
39045;DHT22;52192;52.002;5.956;2023-03-31T16:58:10;13.20;80.10
39045;DHT22;52192;52.002;5.956;2023-03-31T17:00:36;13.20;80.20
39045;DHT22;52192;52.002;5.956;2023-03-31T17:03:05;13.20;80.20
39045;DHT22;52192;52.002;5.956;2023-03-31T17:05:31;13.20;80.20
39045;DHT22;52192;52.002;5.956;2023-03-31T17:08:02;13.20;80.30
39045;DHT22;52192;52.002;5.956;2023-03-31T17:10:28;13.20;80.30
39045;DHT22;52192;52.002;5.956;2023-03-31T17:12:53;13.20;80.40
39045;DHT22;52192;52.002;5.956;2023-03-31T17:15:19;13.20;80.40
39045;DHT22;52192;52.002;5.956;2023-03-31T17:17:46;13.20;80.50
39045;DHT22;52192;52.002;5.956;2023-03-31T17:20:12;13.20;80.60
39045;DHT22;52192;52.002;5.956;2023-03-31T17:22:38;13.10;80.80
39045;DHT22;52192;52.002;5.956;2023-03-31T17:25:04;13.10;80.90
39045;DHT22;52192;52.002;5.956;2023-03-31T17:27:32;13.10;81.00
39045;DHT22;52192;52.002;5.956;2023-03-31T17:29:58;13.10;81.00
39045;DHT22;52192;52.002;5.956;2023-03-31T17:32:25;13.10;81.00
39045;DHT22;52192;52.002;5.956;2023-03-31T17:34:50;13.10;81.10
39045;DHT22;52192;52.002;5.956;2023-03-31T17:37:17;13.10;81.30
39045;DHT22;52192;52.002;5.956;2023-03-31T17:39:44;13.10;81.20
39045;DHT22;52192;52.002;5.956;2023-03-31T17:42:11;13.10;81.10
39045;DHT22;52192;52.002;5.956;2023-03-31T17:44:38;13.10;81.10
39045;DHT22;52192;52.002;5.956;2023-03-31T17:47:04;13.10;81.10
39045;DHT22;52192;52.002;5.956;2023-03-31T17:49:30;13.20;81.10
39045;DHT22;52192;52.002;5.956;2023-03-31T17:51:57;13.10;81.10
39045;DHT22;52192;52.002;5.956;2023-03-31T17:54:23;13.10;81.30
39045;DHT22;52192;52.002;5.956;2023-03-31T17:56:49;13.10;81.50
39045;DHT22;52192;52.002;5.956;2023-03-31T17:59:16;12.90;81.60
39045;DHT22;52192;52.002;5.956;2023-03-31T18:01:43;12.90;81.80
39045;DHT22;52192;52.002;5.956;2023-03-31T18:04:09;12.90;82.10
39045;DHT22;52192;52.002;5.956;2023-03-31T18:06:35;12.80;82.40
39045;DHT22;52192;52.002;5.956;2023-03-31T18:09:01;12.80;82.60
39045;DHT22;52192;52.002;5.956;2023-03-31T18:11:27;12.80;82.70
39045;DHT22;52192;52.002;5.956;2023-03-31T18:13:53;12.80;82.70
39045;DHT22;52192;52.002;5.956;2023-03-31T18:16:20;12.80;82.60
39045;DHT22;52192;52.002;5.956;2023-03-31T18:18:46;12.80;82.50
39045;DHT22;52192;52.002;5.956;2023-03-31T18:21:12;12.90;82.70
39045;DHT22;52192;52.002;5.956;2023-03-31T18:23:39;12.90;82.70
39045;DHT22;52192;52.002;5.956;2023-03-31T18:26:06;12.80;82.70
39045;DHT22;52192;52.002;5.956;2023-03-31T18:28:32;12.80;82.80
39045;DHT22;52192;52.002;5.956;2023-03-31T18:31:02;12.80;82.80